Time;durP1;ratioP1;P1;durP2;ratioP2;P2;SDS_P1;SDS_P2;PMS_P1;PMS_P2;Temp;Humidity;BMP_temperature;BMP_pressure;BME280_temperature;BME280_humidity;BME280_pressure;Samples;Min_cycle;Max_cycle;Signal;HPM_P1;HPM_P2
2022/04/07 00:00:44;;;;;;;12.70;6.93;;;8.80;99.90;;;;;;4380118;28;10001178;-68
2022/04/07 00:03:10;;;;;;;12.23;7.28;;;8.80;99.90;;;;;;5022990;28;20062;-68
2022/04/07 00:05:35;;;;;;;12.68;7.25;;;8.70;99.90;;;;;;5028866;28;20037;-68
2022/04/07 00:08:01;;;;;;;11.98;7.93;;;8.70;99.90;;;;;;5028710;28;20044;-68
2022/04/07 00:10:27;;;;;;;14.75;8.63;;;8.60;99.90;;;;;;5036199;28;20036;-67
2022/04/07 00:12:52;;;;;;;11.32;7.57;;;8.60;99.90;;;;;;5030952;28;20049;-68
2022/04/07 00:15:18;;;;;;;12.40;6.80;;;8.60;99.90;;;;;;5028874;28;20025;-68
2022/04/07 00:17:43;;;;;;;13.35;7.78;;;8.60;99.90;;;;;;5038533;28;20394;-68
2022/04/07 00:20:09;;;;;;;12.30;7.95;;;8.50;99.90;;;;;;5028911;28;20031;-68
2022/04/07 00:22:35;;;;;;;12.15;7.63;;;8.50;99.90;;;;;;5036104;28;20060;-68
2022/04/07 00:25:02;;;;;;;10.55;7.03;;;8.50;99.90;;;;;;5035327;28;20083;-67
2022/04/07 00:27:28;;;;;;;11.20;7.50;;;8.50;99.90;;;;;;5037682;28;20458;-67
2022/04/07 00:29:53;;;;;;;10.80;6.85;;;8.50;99.90;;;;;;5036640;28;20080;-67
2022/04/07 00:32:19;;;;;;;13.77;7.70;;;8.40;99.90;;;;;;5032525;28;20079;-67
2022/04/07 00:34:46;;;;;;;11.98;6.93;;;8.50;99.90;;;;;;5084059;28;20023;-67
2022/04/07 00:37:12;;;;;;;10.75;7.28;;;8.50;99.90;;;;;;5093728;28;20051;-68
2022/04/07 00:39:38;;;;;;;9.57;6.68;;;8.50;99.90;;;;;;5087331;28;20103;-68
2022/04/07 00:42:04;;;;;;;12.10;6.78;;;8.50;99.90;;;;;;5082831;28;20376;-67
2022/04/07 00:44:30;;;;;;;9.48;6.32;;;8.50;99.90;;;;;;5084742;28;20020;-67
2022/04/07 00:46:56;;;;;;;10.77;6.40;;;8.50;99.90;;;;;;5092169;28;20479;-67
2022/04/07 00:49:21;;;;;;;9.73;6.50;;;8.50;99.90;;;;;;5086961;28;20016;-67
2022/04/07 00:51:49;;;;;;;10.50;6.25;;;8.50;99.90;;;;;;5094357;28;20081;-67
2022/04/07 00:54:16;;;;;;;8.50;6.32;;;8.50;99.90;;;;;;5086843;28;20024;-68
2022/04/07 00:56:43;;;;;;;12.30;6.57;;;8.50;99.90;;;;;;5088414;28;20740;-67
2022/04/07 00:59:17;;;;;;;9.90;6.55;;;8.50;99.90;;;;;;5089273;28;20027;-68
2022/04/07 01:01:43;;;;;;;10.73;7.05;;;8.50;99.90;;;;;;5088900;28;20077;-68
2022/04/07 01:04:09;;;;;;;11.80;7.05;;;8.50;99.90;;;;;;5090830;28;20047;-67
2022/04/07 01:06:35;;;;;;;9.93;6.80;;;8.50;99.90;;;;;;5086497;28;20089;-67
2022/04/07 01:09:00;;;;;;;11.02;7.15;;;8.50;99.90;;;;;;5087658;28;20737;-68
2022/04/07 01:11:28;;;;;;;12.10;7.03;;;8.60;99.90;;;;;;5089155;28;20052;-67
2022/04/07 01:13:53;;;;;;;9.85;6.47;;;8.60;99.90;;;;;;5084195;28;20089;-68
2022/04/07 01:16:20;;;;;;;10.15;6.68;;;8.70;99.90;;;;;;5084475;28;20491;-67
2022/04/07 01:18:46;;;;;;;9.45;6.28;;;8.70;99.90;;;;;;5087676;28;20377;-68
2022/04/07 01:21:15;;;;;;;12.50;7.13;;;8.70;99.90;;;;;;5092245;28;20039;-68
2022/04/07 01:23:50;;;;;;;9.95;6.30;;;8.70;99.90;;;;;;5090778;28;20381;-68
2022/04/07 01:26:17;;;;;;;9.07;5.97;;;8.80;99.90;;;;;;5087728;28;20055;-68
2022/04/07 01:28:49;;;;;;;11.30;5.95;;;8.80;99.90;;;;;;5088850;28;20048;-67
2022/04/07 01:31:15;;;;;;;8.75;5.88;;;8.90;99.90;;;;;;5091517;28;20047;-68
2022/04/07 01:33:42;;;;;;;10.82;5.95;;;8.90;99.90;;;;;;5089183;28;20501;-68
2022/04/07 01:36:08;;;;;;;11.48;6.13;;;8.90;99.90;;;;;;5084555;28;20020;-68
2022/04/07 01:38:34;;;;;;;10.18;5.90;;;8.90;99.90;;;;;;5086595;28;20185;-68
2022/04/07 01:41:00;;;;;;;10.95;5.60;;;8.90;99.90;;;;;;5085436;28;20054;-67
2022/04/07 01:43:27;;;;;;;7.28;5.13;;;8.90;99.90;;;;;;5090483;28;20036;-67
2022/04/07 01:45:53;;;;;;;8.82;5.75;;;9.00;99.90;;;;;;5090164;28;20035;-67
2022/04/07 01:48:19;;;;;;;7.72;5.47;;;9.00;99.90;;;;;;5087947;28;20032;-67
2022/04/07 01:50:47;;;;;;;8.10;5.45;;;9.00;99.90;;;;;;5087729;28;20053;-68
2022/04/07 01:53:13;;;;;;;8.40;5.45;;;9.00;99.90;;;;;;5084188;28;20123;-68
2022/04/07 01:55:41;;;;;;;8.75;5.30;;;9.00;99.90;;;;;;5084696;28;20024;-68
2022/04/07 01:58:07;;;;;;;6.65;5.40;;;9.00;99.90;;;;;;5090959;28;20220;-67
2022/04/07 02:00:33;;;;;;;9.30;5.57;;;9.00;99.90;;;;;;5088871;28;20020;-68
2022/04/07 02:02:58;;;;;;;9.23;5.60;;;9.00;99.90;;;;;;5086110;28;20039;-68
2022/04/07 02:05:24;;;;;;;6.93;5.30;;;9.00;99.90;;;;;;5085755;28;20016;-68
2022/04/07 02:07:50;;;;;;;8.52;5.57;;;9.00;99.90;;;;;;5083659;28;20068;-67
2022/04/07 02:10:16;;;;;;;11.18;5.65;;;8.90;99.90;;;;;;5089126;28;20032;-67
2022/04/07 02:12:42;;;;;;;8.40;5.80;;;8.90;99.90;;;;;;5102089;28;20028;-67
2022/04/07 02:15:12;;;;;;;12.63;5.72;;;8.80;99.90;;;;;;5089712;28;20475;-67
2022/04/07 02:17:38;;;;;;;9.20;5.68;;;8.70;99.90;;;;;;5089843;28;20024;-67
2022/04/07 02:20:07;;;;;;;8.32;5.88;;;8.70;99.90;;;;;;5093217;28;20093;-67
2022/04/07 02:22:32;;;;;;;4.70;2.33;;;8.60;99.90;;;;;;5090639;28;20017;-67
2022/04/07 02:25:01;;;;;;;3.67;1.92;;;8.60;99.90;;;;;;5095700;28;20046;-67
2022/04/07 02:27:34;;;;;;;1.92;1.35;;;8.50;99.90;;;;;;5097954;28;20045;-67
2022/04/07 02:29:59;;;;;;;1.60;1.25;;;8.40;99.90;;;;;;5098430;28;20048;-67
2022/04/07 02:32:25;;;;;;;1.23;0.80;;;8.30;99.90;;;;;;5085695;28;20076;-67
2022/04/07 02:34:52;;;;;;;3.13;0.98;;;8.10;99.90;;;;;;5087461;28;20024;-67
2022/04/07 02:37:18;;;;;;;2.33;0.70;;;8.00;99.90;;;;;;5084897;28;20040;-67
2022/04/07 02:39:43;;;;;;;1.92;0.90;;;7.90;99.90;;;;;;5091706;28;20428;-67
2022/04/07 02:42:09;;;;;;;1.38;0.80;;;7.90;99.90;;;;;;5091358;28;20089;-67
2022/04/07 02:44:35;;;;;;;2.05;0.73;;;7.80;99.90;;;;;;5102106;28;20690;-67
2022/04/07 02:47:00;;;;;;;1.33;0.77;;;7.70;99.90;;;;;;5100077;28;20035;-67
2022/04/07 02:49:26;;;;;;;1.23;0.80;;;7.70;99.90;;;;;;5091233;28;20158;-66
2022/04/07 02:51:51;;;;;;;2.70;0.80;;;7.60;99.90;;;;;;5089452;28;20379;-67
2022/04/07 02:54:17;;;;;;;2.38;1.00;;;7.60;99.90;;;;;;5087805;28;20027;-66
2022/04/07 02:56:43;;;;;;;1.95;0.80;;;7.60;99.90;;;;;;5089212;28;20049;-66
2022/04/07 02:59:08;;;;;;;2.13;0.95;;;7.60;99.90;;;;;;5094236;28;20085;-66
2022/04/07 03:01:34;;;;;;;2.90;0.73;;;7.60;99.90;;;;;;5091750;28;20480;-66
2022/04/07 03:03:59;;;;;;;1.95;0.73;;;7.60;99.90;;;;;;5087964;28;20035;-66
2022/04/07 03:06:25;;;;;;;3.13;1.05;;;7.60;99.90;;;;;;5092978;28;20054;-67
2022/04/07 03:08:51;;;;;;;1.10;0.65;;;7.60;99.90;;;;;;5091692;28;20048;-66
2022/04/07 03:11:17;;;;;;;2.60;1.05;;;7.50;99.90;;;;;;5088561;28;20038;-66
2022/04/07 03:13:43;;;;;;;1.30;0.80;;;7.50;99.90;;;;;;5081997;28;20039;-66
2022/04/07 03:16:08;;;;;;;2.38;0.90;;;7.50;99.90;;;;;;5089923;28;20042;-66
2022/04/07 03:18:35;;;;;;;1.33;1.02;;;7.50;99.90;;;;;;5088902;28;20333;-66
2022/04/07 03:21:00;;;;;;;1.40;1.00;;;7.50;99.90;;;;;;5087666;28;20130;-66
2022/04/07 03:23:26;;;;;;;1.27;0.98;;;7.50;99.90;;;;;;5082450;28;21682;-66
2022/04/07 03:25:52;;;;;;;2.60;1.13;;;7.50;99.90;;;;;;5086106;28;20061;-66
2022/04/07 03:28:18;;;;;;;1.58;1.40;;;7.50;99.90;;;;;;5083140;28;20629;-67
2022/04/07 03:30:44;;;;;;;3.17;1.65;;;7.50;99.90;;;;;;5083625;28;20089;-66
2022/04/07 03:33:09;;;;;;;2.03;1.60;;;7.50;99.90;;;;;;5091111;28;20016;-66
2022/04/07 03:35:38;;;;;;;3.65;2.60;;;7.50;99.90;;;;;;5085415;28;20212;-67
2022/04/07 03:38:05;;;;;;;3.75;3.00;;;7.50;99.90;;;;;;5086732;28;20028;-67
2022/04/07 03:40:32;;;;;;;5.70;3.30;;;7.60;99.90;;;;;;5086496;28;20016;-66
2022/04/07 03:42:58;;;;;;;8.70;3.80;;;7.60;99.90;;;;;;5083764;28;20028;-67
2022/04/07 03:45:24;;;;;;;6.07;3.70;;;7.60;99.90;;;;;;5087310;28;20547;-66
2022/04/07 03:47:49;;;;;;;6.00;3.67;;;7.60;99.90;;;;;;5093589;28;20081;-66
2022/04/07 03:50:15;;;;;;;6.15;3.90;;;7.70;99.90;;;;;;5092538;28;20125;-67
2022/04/07 03:52:41;;;;;;;7.25;4.07;;;7.70;99.90;;;;;;5087352;28;20514;-67
2022/04/07 03:55:07;;;;;;;7.32;3.83;;;7.80;99.90;;;;;;5088019;28;20008;-67
2022/04/07 03:57:32;;;;;;;5.25;3.47;;;7.80;99.90;;;;;;5085592;28;20114;-66
2022/04/07 03:59:58;;;;;;;5.88;3.55;;;7.80;99.90;;;;;;5088673;28;20040;-66
2022/04/07 04:02:24;;;;;;;5.38;3.40;;;7.80;99.90;;;;;;5080819;28;20012;-67
2022/04/07 04:04:49;;;;;;;3.83;3.22;;;7.70;99.90;;;;;;5084997;28;20023;-66
2022/04/07 04:07:15;;;;;;;7.80;3.15;;;7.70;99.90;;;;;;5084037;28;20128;-66
2022/04/07 04:09:40;;;;;;;6.53;2.75;;;7.70;99.90;;;;;;5089254;28;20035;-66
2022/04/07 04:12:07;;;;;;;4.90;2.30;;;7.80;99.90;;;;;;5085353;28;20023;-66
2022/04/07 04:14:32;;;;;;;3.22;2.10;;;7.70;99.90;;;;;;5088621;28;20031;-66
2022/04/07 04:16:58;;;;;;;2.70;1.65;;;7.80;99.90;;;;;;5093313;28;20028;-66
2022/04/07 04:19:24;;;;;;;3.85;1.85;;;7.80;99.90;;;;;;5089710;28;20516;-66
2022/04/07 04:21:50;;;;;;;3.55;1.40;;;7.80;99.90;;;;;;5087129;28;20070;-65
2022/04/07 04:24:16;;;;;;;2.25;1.40;;;7.80;99.90;;;;;;5082474;28;20086;-66
2022/04/07 04:26:41;;;;;;;3.20;1.20;;;7.80;99.90;;;;;;5085823;28;20028;-66
2022/04/07 04:29:07;;;;;;;1.83;1.20;;;7.80;99.90;;;;;;5097019;28;20400;-66
2022/04/07 04:31:33;;;;;;;3.05;1.15;;;7.80;99.90;;;;;;5087126;28;20127;-66
2022/04/07 04:33:59;;;;;;;1.95;1.30;;;7.80;99.90;;;;;;5084546;28;20052;-66
2022/04/07 04:36:25;;;;;;;2.10;1.30;;;7.80;99.90;;;;;;5093485;28;20047;-66
2022/04/07 04:38:51;;;;;;;2.08;1.30;;;7.90;99.90;;;;;;5088667;28;20063;-66
2022/04/07 04:41:17;;;;;;;2.10;1.30;;;7.80;99.90;;;;;;5090060;28;20060;-66
2022/04/07 04:43:42;;;;;;;3.33;1.80;;;7.80;99.90;;;;;;5083679;28;20028;-66
2022/04/07 04:46:08;;;;;;;2.42;1.90;;;7.80;99.90;;;;;;5096460;28;20268;-66
2022/04/07 04:48:34;;;;;;;3.38;2.33;;;7.80;99.90;;;;;;5088618;28;20126;-66
2022/04/07 04:51:02;;;;;;;4.28;3.03;;;7.80;99.90;;;;;;5090122;28;20080;-66
2022/04/07 04:53:28;;;;;;;5.97;3.80;;;7.80;99.90;;;;;;5099278;28;20024;-66
2022/04/07 04:55:54;;;;;;;6.50;3.33;;;7.80;99.90;;;;;;5097780;28;20023;-66
2022/04/07 04:58:19;;;;;;;4.32;3.53;;;7.80;99.90;;;;;;5098240;28;20036;-66
2022/04/07 05:00:45;;;;;;;5.93;3.38;;;7.80;99.90;;;;;;5092428;28;20375;-66
2022/04/07 05:03:11;;;;;;;4.53;3.25;;;7.80;99.90;;;;;;5087256;28;20426;-66
2022/04/07 05:05:36;;;;;;;4.28;3.22;;;7.80;99.90;;;;;;5086735;28;20483;-67
2022/04/07 05:08:02;;;;;;;4.07;3.17;;;7.90;99.90;;;;;;5094947;28;20511;-66
2022/04/07 05:10:27;;;;;;;6.07;3.65;;;7.90;99.90;;;;;;5092151;28;20063;-66
2022/04/07 05:12:53;;;;;;;5.47;3.25;;;7.90;99.90;;;;;;5095195;28;20660;-67
2022/04/07 05:15:19;;;;;;;4.47;3.10;;;7.90;99.90;;;;;;4728773;28;10000308;-71
2022/04/07 05:17:52;;;;;;;5.50;3.00;;;8.00;99.90;;;;;;5079838;28;20389;-71
2022/04/07 05:20:18;;;;;;;4.95;3.38;;;7.90;99.90;;;;;;5092294;28;20050;-71
2022/04/07 05:22:43;;;;;;;4.80;3.70;;;8.00;99.90;;;;;;5085794;28;20101;-71
2022/04/07 05:25:10;;;;;;;4.50;3.35;;;8.00;99.90;;;;;;5088450;28;20016;-71
2022/04/07 05:27:37;;;;;;;5.05;3.88;;;8.00;99.90;;;;;;5087402;28;20365;-71
2022/04/07 05:30:07;;;;;;;4.45;3.75;;;8.00;99.90;;;;;;5092886;28;20062;-71
2022/04/07 05:32:34;;;;;;;5.22;4.20;;;8.10;99.90;;;;;;5083955;28;20161;-73
2022/04/07 05:35:00;;;;;;;6.20;4.45;;;8.10;99.90;;;;;;5079557;28;20032;-70
2022/04/07 05:37:26;;;;;;;5.35;4.18;;;8.10;99.90;;;;;;5093543;28;20212;-70
2022/04/07 05:39:51;;;;;;;4.93;4.38;;;8.10;99.90;;;;;;4382042;28;10000706;-70
2022/04/07 05:42:18;;;;;;;5.45;4.10;;;8.10;99.90;;;;;;5092513;28;20028;-70
2022/04/07 05:44:44;;;;;;;6.05;4.35;;;8.10;99.90;;;;;;5083953;28;20046;-70
2022/04/07 05:47:10;;;;;;;7.35;5.30;;;8.10;99.90;;;;;;5095712;28;20119;-70
2022/04/07 05:49:37;;;;;;;7.25;5.30;;;8.10;99.90;;;;;;5083868;28;20185;-70
2022/04/07 05:52:04;;;;;;;7.35;5.35;;;8.10;99.90;;;;;;5088746;28;20122;-70
2022/04/07 05:54:32;;;;;;;8.25;5.80;;;8.10;99.90;;;;;;5086464;28;20028;-70
2022/04/07 05:56:58;;;;;;;8.27;6.40;;;8.10;99.90;;;;;;5101013;28;20235;-70
2022/04/07 05:59:24;;;;;;;8.35;6.18;;;8.10;99.90;;;;;;5096918;28;20027;-71
2022/04/07 06:01:50;;;;;;;9.93;6.95;;;8.20;99.90;;;;;;5092014;28;20092;-71
2022/04/07 06:04:16;;;;;;;8.73;6.72;;;8.20;99.90;;;;;;5092468;28;20020;-70
2022/04/07 06:06:42;;;;;;;7.47;6.20;;;8.20;99.90;;;;;;5087050;28;20068;-70
2022/04/07 06:09:07;;;;;;;8.20;6.65;;;8.20;99.90;;;;;;5089849;28;20117;-70
2022/04/07 06:11:33;;;;;;;7.43;6.13;;;8.20;99.90;;;;;;5098425;28;20030;-71
2022/04/07 06:14:00;;;;;;;7.30;6.18;;;8.20;99.90;;;;;;5088779;28;20558;-70
2022/04/07 06:16:26;;;;;;;6.97;6.10;;;8.30;99.90;;;;;;5088515;28;20062;-70
2022/04/07 06:18:52;;;;;;;7.55;6.00;;;8.30;99.90;;;;;;5093790;28;20044;-71
2022/04/07 06:21:18;;;;;;;9.38;5.78;;;8.30;99.90;;;;;;5087669;28;20039;-71
2022/04/07 06:23:44;;;;;;;6.60;5.57;;;8.30;99.90;;;;;;5085377;28;20076;-71
2022/04/07 06:26:11;;;;;;;7.57;5.07;;;8.40;99.90;;;;;;5086797;28;20484;-71
2022/04/07 06:28:36;;;;;;;7.38;5.28;;;8.40;99.90;;;;;;5092228;28;20055;-71
2022/04/07 06:31:02;;;;;;;5.93;4.43;;;8.50;99.90;;;;;;5098760;28;20027;-71
2022/04/07 06:33:27;;;;;;;6.78;4.68;;;8.60;99.90;;;;;;5092087;28;20020;-71
2022/04/07 06:35:53;;;;;;;5.72;4.35;;;8.60;99.90;;;;;;5098821;28;20020;-71
2022/04/07 06:38:19;;;;;;;6.68;3.95;;;8.70;99.90;;;;;;5090221;28;20020;-71
2022/04/07 06:40:45;;;;;;;5.60;4.00;;;8.80;99.90;;;;;;5089560;28;20100;-71
2022/04/07 06:43:11;;;;;;;6.60;4.07;;;8.80;99.90;;;;;;5091709;28;20360;-70
2022/04/07 06:45:37;;;;;;;7.50;4.47;;;8.90;99.90;;;;;;5089367;28;20085;-71
2022/04/07 06:48:03;;;;;;;4.43;4.03;;;8.90;99.90;;;;;;5087036;28;20028;-71
2022/04/07 06:50:31;;;;;;;6.82;5.07;;;;;;;;;;5088384;28;20249;-70
2022/04/07 06:52:57;;;;;;;5.75;4.70;;;8.80;99.90;;;;;;5097020;28;20416;-72
2022/04/07 06:55:23;;;;;;;5.55;4.30;;;8.90;99.90;;;;;;5086625;28;20084;-71
2022/04/07 06:57:56;;;;;;;8.20;5.03;;;8.90;99.90;;;;;;5091818;28;20019;-71
2022/04/07 07:00:29;;;;;;;6.07;4.50;;;8.90;99.90;;;;;;5088327;28;20028;-71
2022/04/07 07:02:56;;;;;;;5.05;4.28;;;8.90;99.90;;;;;;5086521;28;20438;-71
2022/04/07 07:05:24;;;;;;;6.75;4.30;;;9.00;99.90;;;;;;5087506;28;20119;-71
2022/04/07 07:07:50;;;;;;;4.40;4.00;;;9.00;99.90;;;;;;5089056;28;20024;-71
2022/04/07 07:10:20;;;;;;;7.00;4.88;;;9.00;99.90;;;;;;5087777;28;20031;-71
2022/04/07 07:12:46;;;;;;;5.10;4.32;;;9.10;99.90;;;;;;5085180;28;20028;-71
2022/04/07 07:15:12;;;;;;;5.47;4.13;;;9.10;99.90;;;;;;5097584;28;20487;-71
2022/04/07 07:17:39;;;;;;;9.55;4.63;;;9.10;99.90;;;;;;5089668;28;20063;-71
2022/04/07 07:20:05;;;;;;;5.82;4.15;;;9.10;99.90;;;;;;4359907;28;10001490;-70
2022/04/07 07:22:31;;;;;;;6.10;4.63;;;9.30;99.90;;;;;;5076059;28;20131;-70
2022/04/07 07:24:57;;;;;;;6.03;4.80;;;9.30;99.90;;;;;;5070472;28;20047;-70
2022/04/07 07:27:23;;;;;;;5.43;4.40;;;9.30;99.90;;;;;;5074327;28;20030;-69
2022/04/07 07:29:50;;;;;;;7.07;4.90;;;9.30;99.90;;;;;;5059270;28;20044;-70
2022/04/07 07:32:16;;;;;;;4.60;4.07;;;9.30;99.90;;;;;;5073907;28;20126;-69
2022/04/07 07:34:41;;;;;;;6.55;4.20;;;9.30;99.90;;;;;;5064055;28;20328;-70
2022/04/07 07:37:07;;;;;;;5.07;4.10;;;9.20;99.90;;;;;;5059987;28;20075;-70
2022/04/07 07:39:33;;;;;;;6.65;4.22;;;9.40;99.90;;;;;;5058124;28;20040;-69
2022/04/07 07:41:58;;;;;;;5.03;4.00;;;9.40;99.90;;;;;;5068842;28;20513;-70
2022/04/07 07:44:24;;;;;;;5.43;4.22;;;9.40;99.90;;;;;;5058650;28;20039;-70
2022/04/07 07:46:50;;;;;;;4.20;3.80;;;9.50;99.90;;;;;;5061154;28;20047;-71
2022/04/07 07:49:16;;;;;;;6.85;5.07;;;9.50;99.90;;;;;;5059490;28;20029;-70
2022/04/07 07:51:42;;;;;;;6.35;5.10;;;9.60;99.90;;;;;;5082202;28;20032;-70
2022/04/07 07:54:08;;;;;;;5.53;3.90;;;9.50;99.90;;;;;;5092558;28;20035;-71
2022/04/07 07:56:34;;;;;;;4.22;3.53;;;;;;;;;;5083413;28;20047;-71
2022/04/07 07:59:00;;;;;;;5.40;4.00;;;;;;;;;;5092103;28;20031;-71
2022/04/07 08:01:26;;;;;;;6.03;4.45;;;9.40;99.90;;;;;;5095322;28;20073;-71
2022/04/07 08:03:52;;;;;;;4.45;3.83;;;9.40;99.90;;;;;;5087526;28;20092;-70
2022/04/07 08:06:18;;;;;;;3.78;3.42;;;9.40;99.90;;;;;;5090068;28;20036;-71
2022/04/07 08:08:44;;;;;;;6.63;3.20;;;9.40;99.90;;;;;;5092381;28;20043;-71
2022/04/07 08:11:10;;;;;;;3.63;2.67;;;9.40;99.90;;;;;;5092102;28;20827;-71
2022/04/07 08:13:36;;;;;;;4.80;2.80;;;9.40;99.90;;;;;;5083327;28;20024;-71
2022/04/07 08:16:01;;;;;;;4.85;2.20;;;9.40;99.90;;;;;;5078537;28;20227;-71
2022/04/07 08:18:27;;;;;;;2.45;1.73;;;9.40;99.90;;;;;;5085337;28;20044;-71
2022/04/07 08:20:53;;;;;;;2.15;1.80;;;9.50;99.90;;;;;;5091809;28;20036;-72
2022/04/07 08:23:19;;;;;;;2.13;1.60;;;;;;;;;;5093665;28;20484;-72
2022/04/07 08:25:44;;;;;;;1.55;1.30;;;9.60;99.90;;;;;;5086828;28;20052;-71
2022/04/07 08:28:10;;;;;;;2.25;1.35;;;9.60;99.90;;;;;;5094034;28;20551;-71
2022/04/07 08:30:36;;;;;;;2.45;1.38;;;9.60;99.90;;;;;;5087333;28;20035;-70
2022/04/07 08:33:03;;;;;;;1.20;1.08;;;;;;;;;;5086074;28;20035;-71
2022/04/07 08:35:29;;;;;;;1.20;1.10;;;;;;;;;;5084189;28;20507;-71
2022/04/07 08:37:55;;;;;;;1.95;1.00;;;;;;;;;;5086082;28;20032;-71
2022/04/07 08:40:22;;;;;;;1.10;1.00;;;;;;;;;;5085829;28;20013;-71
2022/04/07 08:42:48;;;;;;;2.75;1.15;;;;;;;;;;5093531;28;20020;-73
2022/04/07 08:45:14;;;;;;;1.98;1.15;;;;;;;;;;5085776;28;20515;-71
2022/04/07 08:47:41;;;;;;;2.33;1.25;;;;;;;;;;5092499;28;20118;-71
2022/04/07 08:50:07;;;;;;;2.70;1.20;;;;;;;;;;5088598;28;20055;-71
2022/04/07 08:52:35;;;;;;;1.55;1.38;;;9.40;99.90;;;;;;5093743;28;20811;-72
2022/04/07 08:55:01;;;;;;;1.25;1.15;;;9.50;99.90;;;;;;5084207;28;20061;-72
2022/04/07 08:57:29;;;;;;;2.22;1.35;;;9.40;99.90;;;;;;5085218;28;20038;-71
2022/04/07 08:59:55;;;;;;;3.30;1.40;;;9.40;99.90;;;;;;5095241;28;20046;-71
2022/04/07 09:02:21;;;;;;;2.50;1.48;;;9.30;99.90;;;;;;5087073;28;20126;-71
2022/04/07 09:04:47;;;;;;;1.92;1.60;;;9.30;99.90;;;;;;5083166;28;20524;-71
2022/04/07 09:07:13;;;;;;;2.97;1.40;;;9.30;99.90;;;;;;5086573;28;20036;-70
2022/04/07 09:09:39;;;;;;;2.65;1.58;;;9.30;99.90;;;;;;5090387;28;20035;-70
2022/04/07 09:12:05;;;;;;;3.08;1.50;;;9.30;99.90;;;;;;5087952;28;20028;-71
2022/04/07 09:14:37;;;;;;;3.35;1.60;;;9.40;99.90;;;;;;5087084;28;20104;-70
2022/04/07 09:17:03;;;;;;;2.00;1.65;;;9.40;99.90;;;;;;5092756;28;20038;-70
2022/04/07 09:19:30;;;;;;;4.22;1.50;;;9.50;99.90;;;;;;5098165;28;20022;-71
2022/04/07 09:22:06;;;;;;;1.85;1.67;;;9.50;99.90;;;;;;5087493;28;20127;-71
2022/04/07 09:24:37;;;;;;;3.03;2.72;;;9.60;99.90;;;;;;5082658;28;20064;-70
2022/04/07 09:27:05;;;;;;;1.92;1.30;;;9.60;99.90;;;;;;5089124;28;20372;-70
2022/04/07 09:29:39;;;;;;;3.83;2.83;;;9.60;99.90;;;;;;5089571;28;20044;-70
2022/04/07 09:32:23;;;;;;;1.38;1.27;;;9.60;99.90;;;;;;5083217;28;20487;-70
2022/04/07 09:34:57;;;;;;;1.42;1.20;;;9.60;99.90;;;;;;5075039;28;20854;-70
2022/04/07 09:37:24;;;;;;;1.15;1.00;;;9.60;99.90;;;;;;5081013;28;20078;-70
2022/04/07 09:40:12;;;;;;;1.83;1.10;;;9.60;99.90;;;;;;5087663;28;20044;-71
2022/04/07 09:42:40;;;;;;;1.70;0.80;;;9.50;99.90;;;;;;5085041;28;20060;-71
2022/04/07 09:45:07;;;;;;;1.55;0.90;;;9.50;99.90;;;;;;5086746;28;20085;-71
2022/04/07 09:47:40;;;;;;;2.00;1.10;;;9.50;99.90;;;;;;5091102;28;20065;-71
2022/04/07 09:50:09;;;;;;;1.15;1.00;;;9.50;99.90;;;;;;5090641;28;20034;-72
2022/04/07 09:52:40;;;;;;;1.25;1.13;;;9.50;99.90;;;;;;5094430;28;20063;-71
2022/04/07 09:55:08;;;;;;;2.25;1.42;;;9.50;99.90;;;;;;5087286;28;20036;-72
2022/04/07 09:57:34;;;;;;;1.20;1.10;;;9.50;99.90;;;;;;5077958;28;20028;-72
2022/04/07 10:00:05;;;;;;;1.60;1.00;;;9.70;99.90;;;;;;5093494;28;20034;-72
2022/04/07 10:02:31;;;;;;;1.63;1.10;;;9.80;99.90;;;;;;5074621;28;20470;-71
2022/04/07 10:04:57;;;;;;;2.25;1.27;;;9.80;99.90;;;;;;5073750;28;20060;-71
2022/04/07 10:07:24;;;;;;;1.20;1.10;;;9.80;99.90;;;;;;5082561;28;20110;-72
2022/04/07 10:09:51;;;;;;;1.50;1.40;;;9.80;99.90;;;;;;5090627;28;20031;-72
2022/04/07 10:12:18;;;;;;;2.13;1.30;;;9.90;99.90;;;;;;5092513;28;20392;-72
2022/04/07 10:14:44;;;;;;;0.95;0.90;;;10.00;99.90;;;;;;5087393;28;20031;-72
2022/04/07 10:17:13;;;;;;;1.08;0.98;;;10.00;99.90;;;;;;5081802;28;20553;-72
2022/04/07 10:19:46;;;;;;;1.20;1.08;;;10.10;99.90;;;;;;5086687;28;20423;-72
2022/04/07 10:22:28;;;;;;;1.70;1.00;;;10.10;99.90;;;;;;5088209;28;20055;-71
2022/04/07 10:25:03;;;;;;;1.10;1.00;;;10.00;99.90;;;;;;5085662;28;20595;-71
2022/04/07 10:27:33;;;;;;;1.25;0.90;;;10.00;99.90;;;;;;5082357;28;20758;-71
2022/04/07 10:30:16;;;;;;;2.40;1.08;;;10.00;99.90;;;;;;5087918;28;20059;-71
2022/04/07 10:32:46;;;;;;;2.28;1.10;;;10.00;99.90;;;;;;5089380;28;20020;-71
2022/04/07 10:35:30;;;;;;;1.85;0.95;;;10.20;99.90;;;;;;5086826;28;20466;-71
2022/04/07 10:37:59;;;;;;;;;;;10.20;99.90;;;;;;5085503;28;20643;-71
2022/04/07 10:40:51;;;;;;;1.88;1.05;;;10.20;99.90;;;;;;5080131;28;19923;-70
2022/04/07 10:43:25;;;;;;;1.75;1.05;;;10.30;99.90;;;;;;5087170;28;20027;-71
2022/04/07 10:46:13;;;;;;;1.23;0.90;;;10.30;99.90;;;;;;5085459;28;20108;-72
2022/04/07 10:48:50;;;;;;;0.82;0.82;;;10.50;99.90;;;;;;5082910;28;20046;-73
2022/04/07 10:51:16;;;;;;;0.88;0.88;;;10.70;99.90;;;;;;5085865;28;20239;-72
2022/04/07 10:53:53;;;;;;;1.92;1.00;;;10.70;99.90;;;;;;5083481;28;20026;-71
2022/04/07 10:56:32;;;;;;;1.40;1.17;;;10.70;99.90;;;;;;5088575;28;20343;-73
2022/04/07 10:59:12;;;;;;;2.55;1.20;;;10.90;99.90;;;;;;5085650;28;20024;-72
2022/04/07 11:01:38;;;;;;;2.67;1.10;;;10.90;99.90;;;;;;5087161;28;20028;-71
2022/04/07 11:07:24;;;;;;;1.17;1.05;;;11.10;99.90;;;;;;5091419;28;20694;-71
2022/04/07 11:09:57;;;;;;;2.67;1.45;;;11.20;99.90;;;;;;5088493;28;20037;-73
2022/04/07 11:12:55;;;;;;;2.20;1.42;;;11.20;99.90;;;;;;5091364;28;20069;-72
2022/04/07 11:15:30;;;;;;;1.33;1.00;;;11.20;99.90;;;;;;5082702;28;20036;-71
2022/04/07 11:18:03;;;;;;;1.15;1.00;;;11.30;99.90;;;;;;5086686;28;20074;-72
2022/04/07 11:20:28;;;;;;;0.80;0.80;;;11.30;99.90;;;;;;5091074;28;20535;-72
2022/04/07 11:23:06;;;;;;;1.73;1.58;;;11.30;99.90;;;;;;5088416;28;20039;-72
2022/04/07 11:25:38;;;;;;;0.88;0.88;;;11.30;99.90;;;;;;5084696;28;20257;-72
2022/04/07 11:28:04;;;;;;;0.88;0.73;;;11.40;99.90;;;;;;5089434;28;20039;-71
2022/04/07 11:31:03;;;;;;;0.90;0.90;;;11.40;99.90;;;;;;5089908;28;20020;-71
2022/04/07 11:33:35;;;;;;;2.35;1.02;;;11.30;99.90;;;;;;5081928;28;20028;-71
2022/04/07 11:36:04;;;;;;;1.95;0.70;;;11.20;99.90;;;;;;5087353;28;20411;-72
2022/04/07 11:38:46;;;;;;;2.03;1.10;;;11.00;99.90;;;;;;5086787;28;20038;-71
2022/04/07 11:41:18;;;;;;;1.05;0.93;;;10.90;99.90;;;;;;5090699;28;20244;-72
2022/04/07 11:43:46;;;;;;;1.08;0.80;;;10.80;99.90;;;;;;5078570;28;20030;-71
2022/04/07 11:46:24;;;;;;;1.98;0.95;;;10.60;99.90;;;;;;5083129;28;20306;-72
2022/04/07 11:48:50;;;;;;;3.92;0.80;;;10.50;99.90;;;;;;5088766;28;20092;-72
2022/04/07 11:51:18;;;;;;;2.67;1.20;;;10.30;99.90;;;;;;5086218;28;20437;-72
2022/04/07 11:53:54;;;;;;;2.97;1.50;;;10.20;99.90;;;;;;5083704;28;20143;-71
2022/04/07 11:56:21;;;;;;;2.53;1.40;;;10.20;99.90;;;;;;5087801;28;20499;-72
2022/04/07 11:59:00;;;;;;;2.35;1.30;;;10.10;99.90;;;;;;5086785;28;20035;-71
2022/04/07 12:01:28;;;;;;;4.55;2.20;;;10.10;99.90;;;;;;5088935;28;20512;-72
2022/04/07 12:03:55;;;;;;;2.78;1.88;;;10.10;99.90;;;;;;5084229;28;20042;-71
2022/04/07 12:06:22;;;;;;;4.93;2.53;;;10.00;99.90;;;;;;5086775;28;20059;-71
2022/04/07 12:08:50;;;;;;;4.85;2.45;;;10.00;99.90;;;;;;5086085;28;20403;-71
2022/04/07 12:11:16;;;;;;;6.82;3.75;;;9.90;99.90;;;;;;5084200;28;20279;-71
2022/04/07 12:13:42;;;;;;;6.10;2.72;;;9.90;99.90;;;;;;5084786;28;20036;-72
2022/04/07 12:16:11;;;;;;;6.30;3.60;;;9.90;99.90;;;;;;5090219;28;20024;-72
2022/04/07 12:18:37;;;;;;;1.73;1.50;;;9.80;99.90;;;;;;5088813;28;20089;-71
2022/04/07 12:21:05;;;;;;;2.78;1.60;;;9.80;99.90;;;;;;5086073;28;20043;-71
2022/04/07 12:23:31;;;;;;;4.38;0.90;;;9.80;99.90;;;;;;5090390;28;20103;-72
2022/04/07 12:26:02;;;;;;;5.30;0.70;;;9.70;99.90;;;;;;5079530;28;20459;-71
2022/04/07 12:28:40;;;;;;;1.05;0.40;;;9.40;99.90;;;;;;4384042;28;10000793;-71
2022/04/07 12:31:13;;;;;;;3.90;0.60;;;9.20;99.90;;;;;;5089123;28;20032;-71
2022/04/07 12:33:47;;;;;;;1.48;0.45;;;9.10;99.90;;;;;;5086178;28;20076;-72
2022/04/07 12:36:32;;;;;;;1.50;0.20;;;9.10;99.90;;;;;;5081282;28;20039;-71
2022/04/07 12:38:59;;;;;;;1.27;0.50;;;9.10;99.90;;;;;;5086255;28;20036;-71
2022/04/07 12:41:34;;;;;;;2.08;0.35;;;9.10;99.90;;;;;;5090635;28;20030;-71
2022/04/07 12:44:00;;;;;;;0.45;0.40;;;9.10;99.90;;;;;;5085138;28;20032;-71
2022/04/07 12:46:46;;;;;;;0.43;0.30;;;9.20;99.90;;;;;;5082724;28;20035;-71
2022/04/07 12:49:12;;;;;;;0.75;0.20;;;9.30;99.90;;;;;;5087942;28;20395;-71
2022/04/07 12:51:39;;;;;;;0.28;0.20;;;9.80;99.90;;;;;;5093739;28;20027;-71
2022/04/07 12:54:05;;;;;;;1.85;0.30;;;10.10;99.90;;;;;;5085454;28;20543;-71
2022/04/07 12:56:31;;;;;;;1.38;0.55;;;10.30;99.90;;;;;;5085070;28;20034;-71
2022/04/07 12:59:07;;;;;;;1.83;0.40;;;10.60;99.90;;;;;;5090183;28;20133;-71
2022/04/07 13:01:32;;;;;;;0.88;0.40;;;11.10;99.90;;;;;;5091066;28;20549;-72
2022/04/07 13:03:59;;;;;;;0.90;0.40;;;11.30;99.90;;;;;;5081408;28;20355;-71